SBCG/CGR METAR and TAF weather

Enter ICAO airport designator
Station Type Date Time Source
SBCG METAR 2021/09/24 06:00 UTC NOAA

SBCG 240600Z 09008KT CAVOK 23/12 Q1015


Station Type Date Time Source
SBCG Decoded METAR 2021/09/24 06:00 UTC NOAA

Campo Grande Aeroporto , Brazil (SBCG) 20-28S 054-40W 567M
Sep 24, 2021 - 02:00 AM EDT / 2021.09.24 0600 UTC
Wind: from the E (090 degrees) at 9 MPH (8 KT):0
Visibility: greater than 7 mile(s):0
Temperature: 73 F (23 C)
Dew Point: 53 F (12 C)
Relative Humidity: 49%
Pressure (altimeter): 29.97 in. Hg (1015 hPa)
ob: SBCG 240600Z 09008KT CAVOK 23/12 Q1015
cycle: 6

Station Type Date Time Source
SBCG TAF 2021/09/24 06:45 UTC NOAA

TAF SBCG 240330Z 2406/2506 09010KT 8000 NSC TN23/2409Z TX36/2417Z
BECMG 2414/2416 15007KT FEW045
TEMPO 2418/2420 20007KT
BECMG 2421/2423 15007KT CAVOK
RMK PHG

Example: see airport list